sensor_id;sensor_type;location;lat;lon;timestamp;P1;durP1;ratioP1;P2;durP2;ratioP2
55364;SDS011;41245;45.384;20.390;2023-04-15T00:01:23;25.73;;;14.18;;
55364;SDS011;41245;45.384;20.390;2023-04-15T00:03:50;31.20;;;15.88;;
55364;SDS011;41245;45.384;20.390;2023-04-15T00:06:17;33.45;;;17.42;;
55364;SDS011;41245;45.384;20.390;2023-04-15T00:08:44;32.95;;;16.90;;
55364;SDS011;41245;45.384;20.390;2023-04-15T00:11:10;30.70;;;15.85;;
55364;SDS011;41245;45.384;20.390;2023-04-15T00:13:36;33.80;;;18.08;;
55364;SDS011;41245;45.384;20.390;2023-04-15T00:16:03;27.60;;;15.20;;
55364;SDS011;41245;45.384;20.390;2023-04-15T00:18:30;30.58;;;16.92;;
55364;SDS011;41245;45.384;20.390;2023-04-15T00:20:56;30.48;;;17.10;;
55364;SDS011;41245;45.384;20.390;2023-04-15T00:23:23;32.50;;;17.30;;
55364;SDS011;41245;45.384;20.390;2023-04-15T00:25:49;31.10;;;15.85;;
55364;SDS011;41245;45.384;20.390;2023-04-15T00:28:16;31.73;;;15.80;;
55364;SDS011;41245;45.384;20.390;2023-04-15T00:30:42;27.98;;;14.43;;
55364;SDS011;41245;45.384;20.390;2023-04-15T00:33:08;22.85;;;13.95;;
55364;SDS011;41245;45.384;20.390;2023-04-15T00:35:35;26.20;;;13.63;;
55364;SDS011;41245;45.384;20.390;2023-04-15T00:38:02;26.90;;;13.73;;
55364;SDS011;41245;45.384;20.390;2023-04-15T00:40:28;23.40;;;13.43;;
55364;SDS011;41245;45.384;20.390;2023-04-15T00:42:55;23.40;;;13.35;;
55364;SDS011;41245;45.384;20.390;2023-04-15T00:45:21;21.48;;;13.07;;
55364;SDS011;41245;45.384;20.390;2023-04-15T00:47:48;24.27;;;14.02;;
55364;SDS011;41245;45.384;20.390;2023-04-15T00:50:14;25.92;;;14.30;;
55364;SDS011;41245;45.384;20.390;2023-04-15T00:52:40;28.05;;;14.98;;
55364;SDS011;41245;45.384;20.390;2023-04-15T00:55:06;24.95;;;13.63;;
55364;SDS011;41245;45.384;20.390;2023-04-15T00:57:32;26.70;;;13.60;;
55364;SDS011;41245;45.384;20.390;2023-04-15T01:00:00;25.42;;;14.57;;
55364;SDS011;41245;45.384;20.390;2023-04-15T01:02:26;23.25;;;14.48;;
55364;SDS011;41245;45.384;20.390;2023-04-15T01:04:52;23.75;;;14.35;;
55364;SDS011;41245;45.384;20.390;2023-04-15T01:07:18;26.30;;;15.10;;
55364;SDS011;41245;45.384;20.390;2023-04-15T01:09:45;30.38;;;14.32;;
55364;SDS011;41245;45.384;20.390;2023-04-15T01:12:13;26.77;;;15.18;;
55364;SDS011;41245;45.384;20.390;2023-04-15T01:14:40;29.35;;;16.10;;
55364;SDS011;41245;45.384;20.390;2023-04-15T01:17:06;29.33;;;15.43;;
55364;SDS011;41245;45.384;20.390;2023-04-15T01:19:32;32.97;;;18.05;;
55364;SDS011;41245;45.384;20.390;2023-04-15T01:21:58;29.77;;;16.30;;
55364;SDS011;41245;45.384;20.390;2023-04-15T01:24:25;36.03;;;18.05;;
55364;SDS011;41245;45.384;20.390;2023-04-15T01:26:52;27.60;;;16.42;;
55364;SDS011;41245;45.384;20.390;2023-04-15T01:29:18;28.17;;;15.70;;
55364;SDS011;41245;45.384;20.390;2023-04-15T01:31:48;26.35;;;14.98;;
55364;SDS011;41245;45.384;20.390;2023-04-15T01:34:15;30.42;;;15.73;;
55364;SDS011;41245;45.384;20.390;2023-04-15T01:36:42;26.33;;;15.13;;
55364;SDS011;41245;45.384;20.390;2023-04-15T01:39:08;31.52;;;16.27;;
55364;SDS011;41245;45.384;20.390;2023-04-15T01:41:34;29.08;;;15.85;;
55364;SDS011;41245;45.384;20.390;2023-04-15T01:44:00;35.97;;;18.13;;
55364;SDS011;41245;45.384;20.390;2023-04-15T01:46:26;32.50;;;16.52;;
55364;SDS011;41245;45.384;20.390;2023-04-15T01:48:52;29.15;;;16.58;;
55364;SDS011;41245;45.384;20.390;2023-04-15T01:51:18;31.15;;;16.45;;
55364;SDS011;41245;45.384;20.390;2023-04-15T01:53:44;31.02;;;16.52;;
55364;SDS011;41245;45.384;20.390;2023-04-15T01:56:10;31.75;;;16.00;;
55364;SDS011;41245;45.384;20.390;2023-04-15T01:58:37;28.52;;;16.42;;
55364;SDS011;41245;45.384;20.390;2023-04-15T02:01:04;30.90;;;17.60;;
55364;SDS011;41245;45.384;20.390;2023-04-15T02:03:31;36.03;;;17.50;;
55364;SDS011;41245;45.384;20.390;2023-04-15T02:05:57;30.60;;;17.15;;
55364;SDS011;41245;45.384;20.390;2023-04-15T02:08:23;32.72;;;18.02;;
55364;SDS011;41245;45.384;20.390;2023-04-15T02:10:49;31.67;;;17.55;;
55364;SDS011;41245;45.384;20.390;2023-04-15T02:13:15;28.10;;;16.20;;
55364;SDS011;41245;45.384;20.390;2023-04-15T02:15:45;30.40;;;17.13;;
55364;SDS011;41245;45.384;20.390;2023-04-15T02:18:12;34.35;;;18.70;;
55364;SDS011;41245;45.384;20.390;2023-04-15T02:20:38;36.45;;;16.52;;
55364;SDS011;41245;45.384;20.390;2023-04-15T02:23:04;32.05;;;17.38;;
55364;SDS011;41245;45.384;20.390;2023-04-15T02:25:31;30.42;;;16.23;;
55364;SDS011;41245;45.384;20.390;2023-04-15T02:27:57;31.95;;;17.92;;
55364;SDS011;41245;45.384;20.390;2023-04-15T02:30:23;34.33;;;18.55;;
55364;SDS011;41245;45.384;20.390;2023-04-15T02:32:50;30.70;;;17.00;;
55364;SDS011;41245;45.384;20.390;2023-04-15T02:35:16;39.05;;;19.00;;
55364;SDS011;41245;45.384;20.390;2023-04-15T02:37:44;35.63;;;19.70;;
55364;SDS011;41245;45.384;20.390;2023-04-15T02:40:10;31.73;;;17.13;;
55364;SDS011;41245;45.384;20.390;2023-04-15T02:42:40;36.97;;;19.30;;
55364;SDS011;41245;45.384;20.390;2023-04-15T02:45:08;29.88;;;17.27;;
55364;SDS011;41245;45.384;20.390;2023-04-15T02:47:34;36.80;;;18.15;;
55364;SDS011;41245;45.384;20.390;2023-04-15T02:50:04;37.80;;;17.63;;
55364;SDS011;41245;45.384;20.390;2023-04-15T02:52:31;37.47;;;19.00;;
55364;SDS011;41245;45.384;20.390;2023-04-15T02:54:57;31.33;;;18.23;;
55364;SDS011;41245;45.384;20.390;2023-04-15T02:57:26;32.47;;;17.92;;
55364;SDS011;41245;45.384;20.390;2023-04-15T02:59:53;35.83;;;18.38;;
55364;SDS011;41245;45.384;20.390;2023-04-15T03:02:19;40.28;;;17.50;;
55364;SDS011;41245;45.384;20.390;2023-04-15T03:04:45;33.53;;;18.23;;
55364;SDS011;41245;45.384;20.390;2023-04-15T03:07:12;34.00;;;18.45;;
55364;SDS011;41245;45.384;20.390;2023-04-15T03:09:38;35.88;;;18.83;;
55364;SDS011;41245;45.384;20.390;2023-04-15T03:12:05;38.15;;;19.77;;
55364;SDS011;41245;45.384;20.390;2023-04-15T03:14:31;35.50;;;18.98;;
55364;SDS011;41245;45.384;20.390;2023-04-15T03:16:57;33.25;;;19.00;;
55364;SDS011;41245;45.384;20.390;2023-04-15T03:19:23;36.42;;;19.67;;
55364;SDS011;41245;45.384;20.390;2023-04-15T03:21:49;38.20;;;20.15;;
55364;SDS011;41245;45.384;20.390;2023-04-15T03:24:16;45.85;;;21.77;;
55364;SDS011;41245;45.384;20.390;2023-04-15T03:26:42;35.90;;;20.00;;
55364;SDS011;41245;45.384;20.390;2023-04-15T03:29:08;40.83;;;20.77;;
55364;SDS011;41245;45.384;20.390;2023-04-15T03:31:34;34.28;;;20.00;;
55364;SDS011;41245;45.384;20.390;2023-04-15T03:34:01;42.90;;;21.67;;
55364;SDS011;41245;45.384;20.390;2023-04-15T03:36:28;37.08;;;20.08;;
55364;SDS011;41245;45.384;20.390;2023-04-15T03:38:56;35.55;;;20.95;;
55364;SDS011;41245;45.384;20.390;2023-04-15T03:41:22;36.42;;;20.80;;
55364;SDS011;41245;45.384;20.390;2023-04-15T03:43:48;41.47;;;21.35;;
55364;SDS011;41245;45.384;20.390;2023-04-15T03:46:16;40.08;;;21.95;;
55364;SDS011;41245;45.384;20.390;2023-04-15T03:48:42;42.75;;;22.88;;
55364;SDS011;41245;45.384;20.390;2023-04-15T03:51:08;42.72;;;22.17;;
55364;SDS011;41245;45.384;20.390;2023-04-15T03:53:34;41.25;;;22.30;;
55364;SDS011;41245;45.384;20.390;2023-04-15T03:56:00;39.47;;;22.33;;
55364;SDS011;41245;45.384;20.390;2023-04-15T03:58:26;45.78;;;23.15;;
55364;SDS011;41245;45.384;20.390;2023-04-15T04:00:53;44.97;;;23.95;;
55364;SDS011;41245;45.384;20.390;2023-04-15T04:03:19;45.80;;;24.38;;
55364;SDS011;41245;45.384;20.390;2023-04-15T04:05:45;55.05;;;28.25;;
55364;SDS011;41245;45.384;20.390;2023-04-15T04:08:11;47.60;;;25.08;;
55364;SDS011;41245;45.384;20.390;2023-04-15T04:10:38;59.00;;;27.73;;
55364;SDS011;41245;45.384;20.390;2023-04-15T04:13:04;52.38;;;27.45;;
55364;SDS011;41245;45.384;20.390;2023-04-15T04:15:30;53.90;;;29.05;;
55364;SDS011;41245;45.384;20.390;2023-04-15T04:17:56;56.03;;;28.92;;
55364;SDS011;41245;45.384;20.390;2023-04-15T04:20:22;40.55;;;25.67;;
55364;SDS011;41245;45.384;20.390;2023-04-15T04:22:48;43.05;;;25.63;;
55364;SDS011;41245;45.384;20.390;2023-04-15T04:25:14;48.13;;;27.80;;
55364;SDS011;41245;45.384;20.390;2023-04-15T04:27:40;45.38;;;25.50;;
55364;SDS011;41245;45.384;20.390;2023-04-15T04:30:07;39.15;;;22.65;;
55364;SDS011;41245;45.384;20.390;2023-04-15T04:32:33;39.60;;;25.23;;
55364;SDS011;41245;45.384;20.390;2023-04-15T04:34:59;40.42;;;25.40;;
55364;SDS011;41245;45.384;20.390;2023-04-15T04:37:25;38.53;;;26.67;;
55364;SDS011;41245;45.384;20.390;2023-04-15T04:39:51;42.42;;;23.42;;
55364;SDS011;41245;45.384;20.390;2023-04-15T04:42:17;32.90;;;21.50;;
55364;SDS011;41245;45.384;20.390;2023-04-15T04:44:43;32.67;;;19.38;;
55364;SDS011;41245;45.384;20.390;2023-04-15T04:47:10;26.60;;;17.88;;
55364;SDS011;41245;45.384;20.390;2023-04-15T04:49:36;28.83;;;17.10;;
55364;SDS011;41245;45.384;20.390;2023-04-15T04:52:02;22.70;;;14.13;;
55364;SDS011;41245;45.384;20.390;2023-04-15T04:54:28;22.75;;;14.50;;
55364;SDS011;41245;45.384;20.390;2023-04-15T04:56:55;19.52;;;13.25;;
55364;SDS011;41245;45.384;20.390;2023-04-15T04:59:22;19.90;;;13.73;;
55364;SDS011;41245;45.384;20.390;2023-04-15T05:01:48;22.63;;;15.27;;
55364;SDS011;41245;45.384;20.390;2023-04-15T05:04:14;19.50;;;14.60;;
55364;SDS011;41245;45.384;20.390;2023-04-15T05:06:40;22.27;;;13.90;;
55364;SDS011;41245;45.384;20.390;2023-04-15T05:09:06;22.33;;;13.65;;
55364;SDS011;41245;45.384;20.390;2023-04-15T05:11:32;19.58;;;14.63;;
55364;SDS011;41245;45.384;20.390;2023-04-15T05:13:58;22.98;;;15.13;;
55364;SDS011;41245;45.384;20.390;2023-04-15T05:16:26;24.73;;;14.57;;
55364;SDS011;41245;45.384;20.390;2023-04-15T05:18:51;18.17;;;12.45;;
55364;SDS011;41245;45.384;20.390;2023-04-15T05:21:17;23.58;;;13.77;;
55364;SDS011;41245;45.384;20.390;2023-04-15T05:23:44;18.88;;;13.70;;
55364;SDS011;41245;45.384;20.390;2023-04-15T05:26:10;24.45;;;14.02;;
55364;SDS011;41245;45.384;20.390;2023-04-15T05:28:36;16.13;;;12.55;;
55364;SDS011;41245;45.384;20.390;2023-04-15T05:31:02;18.67;;;12.43;;
55364;SDS011;41245;45.384;20.390;2023-04-15T05:33:28;19.15;;;11.88;;
55364;SDS011;41245;45.384;20.390;2023-04-15T05:35:54;17.17;;;11.10;;
55364;SDS011;41245;45.384;20.390;2023-04-15T05:38:20;22.38;;;11.02;;
55364;SDS011;41245;45.384;20.390;2023-04-15T05:40:46;16.52;;;10.35;;
55364;SDS011;41245;45.384;20.390;2023-04-15T05:43:12;17.05;;;11.00;;
55364;SDS011;41245;45.384;20.390;2023-04-15T05:45:38;30.58;;;12.05;;
55364;SDS011;41245;45.384;20.390;2023-04-15T05:48:04;16.33;;;11.10;;
55364;SDS011;41245;45.384;20.390;2023-04-15T05:50:30;14.90;;;9.57;;
55364;SDS011;41245;45.384;20.390;2023-04-15T05:52:56;13.77;;;9.88;;
55364;SDS011;41245;45.384;20.390;2023-04-15T05:55:21;14.50;;;10.63;;
55364;SDS011;41245;45.384;20.390;2023-04-15T05:57:47;19.88;;;11.45;;
55364;SDS011;41245;45.384;20.390;2023-04-15T06:00:13;15.35;;;11.52;;
55364;SDS011;41245;45.384;20.390;2023-04-15T06:02:39;25.83;;;18.42;;
55364;SDS011;41245;45.384;20.390;2023-04-15T06:05:05;26.50;;;18.92;;
55364;SDS011;41245;45.384;20.390;2023-04-15T06:07:34;25.67;;;17.90;;
55364;SDS011;41245;45.384;20.390;2023-04-15T06:10:01;28.25;;;14.75;;
55364;SDS011;41245;45.384;20.390;2023-04-15T06:12:27;20.20;;;13.52;;
55364;SDS011;41245;45.384;20.390;2023-04-15T06:14:53;26.48;;;13.18;;
55364;SDS011;41245;45.384;20.390;2023-04-15T06:17:19;21.38;;;13.48;;
55364;SDS011;41245;45.384;20.390;2023-04-15T06:19:45;23.27;;;11.82;;
55364;SDS011;41245;45.384;20.390;2023-04-15T06:22:10;18.17;;;12.30;;
55364;SDS011;41245;45.384;20.390;2023-04-15T06:24:36;17.92;;;11.80;;
55364;SDS011;41245;45.384;20.390;2023-04-15T06:27:02;22.92;;;12.13;;
55364;SDS011;41245;45.384;20.390;2023-04-15T06:29:27;23.40;;;12.48;;
55364;SDS011;41245;45.384;20.390;2023-04-15T06:31:53;18.77;;;11.75;;
55364;SDS011;41245;45.384;20.390;2023-04-15T06:34:20;21.17;;;11.50;;
55364;SDS011;41245;45.384;20.390;2023-04-15T06:36:46;15.85;;;9.50;;
55364;SDS011;41245;45.384;20.390;2023-04-15T06:39:12;17.98;;;10.15;;
55364;SDS011;41245;45.384;20.390;2023-04-15T06:41:38;12.02;;;8.48;;
55364;SDS011;41245;45.384;20.390;2023-04-15T06:44:03;13.20;;;7.90;;
55364;SDS011;41245;45.384;20.390;2023-04-15T06:46:29;15.65;;;8.40;;
55364;SDS011;41245;45.384;20.390;2023-04-15T06:48:55;16.05;;;7.78;;
55364;SDS011;41245;45.384;20.390;2023-04-15T06:51:21;12.15;;;6.93;;
55364;SDS011;41245;45.384;20.390;2023-04-15T06:53:48;15.20;;;6.72;;
55364;SDS011;41245;45.384;20.390;2023-04-15T06:56:13;14.85;;;6.22;;
55364;SDS011;41245;45.384;20.390;2023-04-15T06:58:39;13.20;;;7.53;;
55364;SDS011;41245;45.384;20.390;2023-04-15T07:01:05;9.75;;;5.90;;
55364;SDS011;41245;45.384;20.390;2023-04-15T07:03:31;9.35;;;5.72;;
55364;SDS011;41245;45.384;20.390;2023-04-15T07:05:56;10.13;;;5.20;;
55364;SDS011;41245;45.384;20.390;2023-04-15T07:08:22;12.25;;;4.40;;
55364;SDS011;41245;45.384;20.390;2023-04-15T07:10:48;8.15;;;4.80;;
55364;SDS011;41245;45.384;20.390;2023-04-15T07:13:14;8.52;;;4.80;;
55364;SDS011;41245;45.384;20.390;2023-04-15T07:15:40;9.65;;;3.88;;
55364;SDS011;41245;45.384;20.390;2023-04-15T07:18:05;9.27;;;4.25;;
55364;SDS011;41245;45.384;20.390;2023-04-15T07:20:31;7.47;;;4.18;;
55364;SDS011;41245;45.384;20.390;2023-04-15T07:22:57;6.90;;;3.15;;
55364;SDS011;41245;45.384;20.390;2023-04-15T07:25:23;6.03;;;3.22;;
55364;SDS011;41245;45.384;20.390;2023-04-15T07:27:48;6.05;;;4.00;;
55364;SDS011;41245;45.384;20.390;2023-04-15T07:30:14;7.30;;;3.58;;
55364;SDS011;41245;45.384;20.390;2023-04-15T07:32:41;9.95;;;4.28;;
55364;SDS011;41245;45.384;20.390;2023-04-15T07:35:06;9.43;;;3.20;;
55364;SDS011;41245;45.384;20.390;2023-04-15T07:37:33;6.97;;;3.88;;
55364;SDS011;41245;45.384;20.390;2023-04-15T07:40:00;9.05;;;3.05;;
55364;SDS011;41245;45.384;20.390;2023-04-15T07:42:28;9.13;;;2.85;;
55364;SDS011;41245;45.384;20.390;2023-04-15T07:44:54;6.55;;;2.88;;
55364;SDS011;41245;45.384;20.390;2023-04-15T07:47:20;9.80;;;2.78;;
55364;SDS011;41245;45.384;20.390;2023-04-15T07:49:46;11.60;;;2.90;;
55364;SDS011;41245;45.384;20.390;2023-04-15T07:52:12;10.35;;;3.47;;
55364;SDS011;41245;45.384;20.390;2023-04-15T07:54:37;4.95;;;2.35;;
55364;SDS011;41245;45.384;20.390;2023-04-15T07:57:03;6.20;;;2.47;;
55364;SDS011;41245;45.384;20.390;2023-04-15T07:59:29;5.68;;;2.90;;
55364;SDS011;41245;45.384;20.390;2023-04-15T08:01:57;7.40;;;3.17;;
55364;SDS011;41245;45.384;20.390;2023-04-15T08:04:23;5.40;;;2.90;;
55364;SDS011;41245;45.384;20.390;2023-04-15T08:06:49;3.45;;;2.05;;
55364;SDS011;41245;45.384;20.390;2023-04-15T08:09:16;3.38;;;2.15;;
55364;SDS011;41245;45.384;20.390;2023-04-15T08:11:42;7.13;;;3.10;;
55364;SDS011;41245;45.384;20.390;2023-04-15T08:14:07;11.85;;;2.25;;
55364;SDS011;41245;45.384;20.390;2023-04-15T08:16:33;22.67;;;3.97;;
55364;SDS011;41245;45.384;20.390;2023-04-15T08:18:59;11.10;;;2.78;;
55364;SDS011;41245;45.384;20.390;2023-04-15T08:21:25;5.05;;;2.10;;
55364;SDS011;41245;45.384;20.390;2023-04-15T08:23:52;3.50;;;2.15;;
55364;SDS011;41245;45.384;20.390;2023-04-15T08:26:19;3.13;;;1.75;;
55364;SDS011;41245;45.384;20.390;2023-04-15T08:28:45;4.22;;;2.00;;
55364;SDS011;41245;45.384;20.390;2023-04-15T08:31:11;5.75;;;1.90;;
55364;SDS011;41245;45.384;20.390;2023-04-15T08:33:38;11.80;;;2.00;;
55364;SDS011;41245;45.384;20.390;2023-04-15T08:36:04;8.30;;;2.45;;
55364;SDS011;41245;45.384;20.390;2023-04-15T08:38:30;2.78;;;1.95;;
55364;SDS011;41245;45.384;20.390;2023-04-15T08:40:56;2.33;;;1.70;;
55364;SDS011;41245;45.384;20.390;2023-04-15T08:43:26;6.15;;;2.65;;
55364;SDS011;41245;45.384;20.390;2023-04-15T08:48:20;6.45;;;1.50;;
55364;SDS011;41245;45.384;20.390;2023-04-15T08:50:48;3.22;;;1.38;;
55364;SDS011;41245;45.384;20.390;2023-04-15T08:53:14;2.13;;;1.08;;
55364;SDS011;41245;45.384;20.390;2023-04-15T08:55:44;1.48;;;1.30;;
55364;SDS011;41245;45.384;20.390;2023-04-15T09:00:37;5.60;;;1.30;;
55364;SDS011;41245;45.384;20.390;2023-04-15T09:03:03;5.15;;;1.02;;
55364;SDS011;41245;45.384;20.390;2023-04-15T09:05:37;2.38;;;1.20;;
55364;SDS011;41245;45.384;20.390;2023-04-15T09:08:03;1.15;;;0.90;;
55364;SDS011;41245;45.384;20.390;2023-04-15T09:10:30;9.48;;;1.60;;
55364;SDS011;41245;45.384;20.390;2023-04-15T09:12:57;1.77;;;0.63;;
55364;SDS011;41245;45.384;20.390;2023-04-15T09:15:26;2.38;;;1.10;;
55364;SDS011;41245;45.384;20.390;2023-04-15T09:17:54;2.53;;;0.95;;
55364;SDS011;41245;45.384;20.390;2023-04-15T09:20:20;3.83;;;1.08;;
55364;SDS011;41245;45.384;20.390;2023-04-15T09:22:47;2.83;;;1.25;;
55364;SDS011;41245;45.384;20.390;2023-04-15T09:28:13;3.20;;;1.23;;
55364;SDS011;41245;45.384;20.390;2023-04-15T09:30:32;2.70;;;1.40;;
55364;SDS011;41245;45.384;20.390;2023-04-15T09:32:59;7.78;;;1.52;;
55364;SDS011;41245;45.384;20.390;2023-04-15T09:35:32;3.22;;;1.23;;
55364;SDS011;41245;45.384;20.390;2023-04-15T09:38:07;2.78;;;1.40;;
55364;SDS011;41245;45.384;20.390;2023-04-15T09:43:00;5.68;;;1.75;;
55364;SDS011;41245;45.384;20.390;2023-04-15T09:45:27;7.50;;;1.20;;
55364;SDS011;41245;45.384;20.390;2023-04-15T09:47:53;4.28;;;1.42;;
55364;SDS011;41245;45.384;20.390;2023-04-15T09:50:19;6.72;;;1.42;;
55364;SDS011;41245;45.384;20.390;2023-04-15T09:52:46;6.22;;;1.35;;
55364;SDS011;41245;45.384;20.390;2023-04-15T09:55:12;5.95;;;1.27;;
55364;SDS011;41245;45.384;20.390;2023-04-15T09:57:40;1.98;;;1.08;;
55364;SDS011;41245;45.384;20.390;2023-04-15T10:00:07;2.47;;;1.48;;
55364;SDS011;41245;45.384;20.390;2023-04-15T10:02:35;3.17;;;0.90;;
55364;SDS011;41245;45.384;20.390;2023-04-15T10:05:01;5.40;;;1.58;;
55364;SDS011;41245;45.384;20.390;2023-04-15T10:07:27;2.10;;;1.20;;
55364;SDS011;41245;45.384;20.390;2023-04-15T10:09:54;1.52;;;0.80;;
55364;SDS011;41245;45.384;20.390;2023-04-15T10:12:20;5.47;;;1.48;;
55364;SDS011;41245;45.384;20.390;2023-04-15T10:14:47;2.95;;;1.35;;
55364;SDS011;41245;45.384;20.390;2023-04-15T10:17:21;2.67;;;1.17;;
55364;SDS011;41245;45.384;20.390;2023-04-15T10:19:47;1.00;;;0.73;;
55364;SDS011;41245;45.384;20.390;2023-04-15T10:22:14;1.75;;;1.08;;
55364;SDS011;41245;45.384;20.390;2023-04-15T10:24:40;4.90;;;0.98;;
55364;SDS011;41245;45.384;20.390;2023-04-15T10:27:07;2.00;;;0.65;;
55364;SDS011;41245;45.384;20.390;2023-04-15T10:29:33;2.00;;;1.08;;
55364;SDS011;41245;45.384;20.390;2023-04-15T10:31:59;2.47;;;1.38;;
55364;SDS011;41245;45.384;20.390;2023-04-15T10:34:26;3.97;;;1.40;;
55364;SDS011;41245;45.384;20.390;2023-04-15T10:36:58;1.80;;;1.17;;
55364;SDS011;41245;45.384;20.390;2023-04-15T10:42:12;5.18;;;1.55;;
55364;SDS011;41245;45.384;20.390;2023-04-15T10:44:43;5.82;;;1.02;;
55364;SDS011;41245;45.384;20.390;2023-04-15T10:47:13;4.82;;;1.05;;
55364;SDS011;41245;45.384;20.390;2023-04-15T10:49:43;2.05;;;1.23;;
55364;SDS011;41245;45.384;20.390;2023-04-15T10:52:17;2.50;;;1.00;;
55364;SDS011;41245;45.384;20.390;2023-04-15T10:54:47;2.22;;;1.50;;
55364;SDS011;41245;45.384;20.390;2023-04-15T10:57:20;4.18;;;1.48;;
55364;SDS011;41245;45.384;20.390;2023-04-15T11:05:21;2.90;;;0.65;;
55364;SDS011;41245;45.384;20.390;2023-04-15T11:08:05;2.20;;;0.85;;
55364;SDS011;41245;45.384;20.390;2023-04-15T11:15:27;1.48;;;0.68;;
55364;SDS011;41245;45.384;20.390;2023-04-15T11:18:11;1.65;;;1.00;;
55364;SDS011;41245;45.384;20.390;2023-04-15T11:20:58;1.63;;;0.98;;
55364;SDS011;41245;45.384;20.390;2023-04-15T11:26:02;3.60;;;2.05;;
55364;SDS011;41245;45.384;20.390;2023-04-15T11:28:31;9.23;;;0.98;;
55364;SDS011;41245;45.384;20.390;2023-04-15T11:30:57;2.75;;;0.88;;
55364;SDS011;41245;45.384;20.390;2023-04-15T11:33:29;2.97;;;1.25;;
55364;SDS011;41245;45.384;20.390;2023-04-15T11:35:55;1.70;;;0.55;;
55364;SDS011;41245;45.384;20.390;2023-04-15T11:38:22;4.03;;;0.95;;
55364;SDS011;41245;45.384;20.390;2023-04-15T11:40:49;2.28;;;1.20;;
55364;SDS011;41245;45.384;20.390;2023-04-15T11:43:19;5.25;;;2.17;;
55364;SDS011;41245;45.384;20.390;2023-04-15T11:48:15;6.82;;;2.45;;
55364;SDS011;41245;45.384;20.390;2023-04-15T11:50:42;1.75;;;0.88;;
55364;SDS011;41245;45.384;20.390;2023-04-15T11:53:11;1.70;;;1.15;;
55364;SDS011;41245;45.384;20.390;2023-04-15T11:55:44;3.47;;;1.50;;
55364;SDS011;41245;45.384;20.390;2023-04-15T11:58:15;3.08;;;1.30;;
55364;SDS011;41245;45.384;20.390;2023-04-15T12:06:01;5.60;;;1.25;;
55364;SDS011;41245;45.384;20.390;2023-04-15T12:14:11;5.63;;;2.58;;
55364;SDS011;41245;45.384;20.390;2023-04-15T12:19:11;1.60;;;0.93;;
55364;SDS011;41245;45.384;20.390;2023-04-15T12:21:38;1.27;;;0.90;;
55364;SDS011;41245;45.384;20.390;2023-04-15T12:24:07;1.83;;;0.98;;
55364;SDS011;41245;45.384;20.390;2023-04-15T12:26:36;2.30;;;0.98;;
55364;SDS011;41245;45.384;20.390;2023-04-15T12:29:07;5.15;;;2.05;;
55364;SDS011;41245;45.384;20.390;2023-04-15T12:31:36;2.35;;;1.20;;
55364;SDS011;41245;45.384;20.390;2023-04-15T12:34:10;1.10;;;0.90;;
55364;SDS011;41245;45.384;20.390;2023-04-15T12:36:36;1.50;;;0.93;;
55364;SDS011;41245;45.384;20.390;2023-04-15T12:39:02;3.33;;;1.00;;
55364;SDS011;41245;45.384;20.390;2023-04-15T12:41:28;2.10;;;0.80;;
55364;SDS011;41245;45.384;20.390;2023-04-15T12:43:55;2.47;;;1.08;;
55364;SDS011;41245;45.384;20.390;2023-04-15T12:46:20;1.00;;;0.90;;
55364;SDS011;41245;45.384;20.390;2023-04-15T12:48:46;2.97;;;1.05;;
55364;SDS011;41245;45.384;20.390;2023-04-15T12:51:12;1.20;;;1.00;;
55364;SDS011;41245;45.384;20.390;2023-04-15T12:53:38;3.45;;;1.45;;
55364;SDS011;41245;45.384;20.390;2023-04-15T12:56:04;1.92;;;1.17;;
55364;SDS011;41245;45.384;20.390;2023-04-15T12:58:30;0.60;;;0.55;;
55364;SDS011;41245;45.384;20.390;2023-04-15T13:00:56;1.30;;;1.08;;
55364;SDS011;41245;45.384;20.390;2023-04-15T13:03:22;4.70;;;1.00;;
55364;SDS011;41245;45.384;20.390;2023-04-15T13:05:48;1.52;;;0.80;;
55364;SDS011;41245;45.384;20.390;2023-04-15T13:08:15;2.17;;;1.10;;
55364;SDS011;41245;45.384;20.390;2023-04-15T13:10:41;1.25;;;1.00;;
55364;SDS011;41245;45.384;20.390;2023-04-15T13:13:07;0.73;;;0.60;;
55364;SDS011;41245;45.384;20.390;2023-04-15T13:15:33;4.10;;;0.65;;
55364;SDS011;41245;45.384;20.390;2023-04-15T13:17:59;0.75;;;0.70;;
55364;SDS011;41245;45.384;20.390;2023-04-15T13:20:25;0.85;;;0.73;;
55364;SDS011;41245;45.384;20.390;2023-04-15T13:22:51;2.67;;;0.60;;
55364;SDS011;41245;45.384;20.390;2023-04-15T13:25:18;1.25;;;0.73;;
55364;SDS011;41245;45.384;20.390;2023-04-15T13:27:44;1.80;;;1.40;;
55364;SDS011;41245;45.384;20.390;2023-04-15T13:30:10;2.35;;;0.88;;
55364;SDS011;41245;45.384;20.390;2023-04-15T13:32:37;2.15;;;1.08;;
55364;SDS011;41245;45.384;20.390;2023-04-15T13:35:03;0.75;;;0.65;;
55364;SDS011;41245;45.384;20.390;2023-04-15T13:37:29;0.77;;;0.60;;
55364;SDS011;41245;45.384;20.390;2023-04-15T13:39:55;1.30;;;0.65;;
55364;SDS011;41245;45.384;20.390;2023-04-15T13:42:21;1.67;;;0.90;;
55364;SDS011;41245;45.384;20.390;2023-04-15T13:44:50;1.48;;;0.60;;
55364;SDS011;41245;45.384;20.390;2023-04-15T13:47:17;4.45;;;1.63;;
55364;SDS011;41245;45.384;20.390;2023-04-15T13:49:44;3.13;;;1.02;;
55364;SDS011;41245;45.384;20.390;2023-04-15T13:52:10;2.00;;;1.30;;
55364;SDS011;41245;45.384;20.390;2023-04-15T13:54:36;3.47;;;1.48;;
55364;SDS011;41245;45.384;20.390;2023-04-15T13:57:02;2.35;;;1.30;;
55364;SDS011;41245;45.384;20.390;2023-04-15T13:59:28;1.63;;;1.00;;
55364;SDS011;41245;45.384;20.390;2023-04-15T14:01:53;3.58;;;1.25;;
55364;SDS011;41245;45.384;20.390;2023-04-15T14:04:19;2.25;;;0.88;;
55364;SDS011;41245;45.384;20.390;2023-04-15T14:06:45;2.35;;;0.98;;
55364;SDS011;41245;45.384;20.390;2023-04-15T14:09:10;1.35;;;0.75;;
55364;SDS011;41245;45.384;20.390;2023-04-15T14:11:39;2.63;;;1.38;;
55364;SDS011;41245;45.384;20.390;2023-04-15T14:14:05;2.22;;;1.20;;
55364;SDS011;41245;45.384;20.390;2023-04-15T14:16:31;1.85;;;1.00;;
55364;SDS011;41245;45.384;20.390;2023-04-15T14:18:57;10.90;;;2.15;;
55364;SDS011;41245;45.384;20.390;2023-04-15T14:21:23;2.58;;;0.70;;
55364;SDS011;41245;45.384;20.390;2023-04-15T14:23:51;1.15;;;0.88;;
55364;SDS011;41245;45.384;20.390;2023-04-15T14:26:17;1.08;;;0.80;;
55364;SDS011;41245;45.384;20.390;2023-04-15T14:28:43;2.55;;;1.13;;
55364;SDS011;41245;45.384;20.390;2023-04-15T14:31:09;2.55;;;0.82;;
55364;SDS011;41245;45.384;20.390;2023-04-15T14:33:35;1.48;;;1.08;;
55364;SDS011;41245;45.384;20.390;2023-04-15T14:36:00;1.05;;;0.73;;
55364;SDS011;41245;45.384;20.390;2023-04-15T14:38:26;4.75;;;0.93;;
55364;SDS011;41245;45.384;20.390;2023-04-15T14:40:52;2.83;;;0.52;;
55364;SDS011;41245;45.384;20.390;2023-04-15T14:43:17;1.63;;;0.50;;
55364;SDS011;41245;45.384;20.390;2023-04-15T14:45:44;4.53;;;0.80;;
55364;SDS011;41245;45.384;20.390;2023-04-15T14:48:10;1.65;;;1.00;;
55364;SDS011;41245;45.384;20.390;2023-04-15T14:50:36;1.23;;;1.13;;
55364;SDS011;41245;45.384;20.390;2023-04-15T14:53:02;4.55;;;1.48;;
55364;SDS011;41245;45.384;20.390;2023-04-15T14:55:28;2.03;;;0.88;;
55364;SDS011;41245;45.384;20.390;2023-04-15T14:57:54;4.95;;;1.10;;
55364;SDS011;41245;45.384;20.390;2023-04-15T15:00:19;6.30;;;1.58;;